createdAt,value
2022-07-29T00:00:00.388Z,1.38
2022-07-29T00:02:28.016Z,1.50
2022-07-29T00:04:54.746Z,1.25
2022-07-29T00:07:21.435Z,1.75
2022-07-29T00:09:51.631Z,1.45
2022-07-29T00:12:26.241Z,1.75
2022-07-29T00:14:56.823Z,1.20
2022-07-29T00:17:24.414Z,1.38
2022-07-29T00:19:51.112Z,1.30
2022-07-29T00:22:21.239Z,1.30
2022-07-29T00:24:50.291Z,1.45
2022-07-29T00:27:17.586Z,1.88
2022-07-29T00:29:44.287Z,1.42
2022-07-29T00:32:10.969Z,1.33
2022-07-29T00:34:56.061Z,1.17
2022-07-29T00:37:22.767Z,1.42
2022-07-29T00:39:49.430Z,1.23
2022-07-29T00:42:17.283Z,1.63
2022-07-29T00:44:44.007Z,1.20
2022-07-29T00:47:11.562Z,1.40
2022-07-29T00:49:38.998Z,1.42
2022-07-29T00:52:06.108Z,1.25
2022-07-29T00:54:33.881Z,1.15
2022-07-29T00:57:00.923Z,1.92
2022-07-29T00:59:34.931Z,1.50
2022-07-29T01:02:03.938Z,1.73
2022-07-29T01:04:31.157Z,1.50
2022-07-29T01:06:57.888Z,1.38
2022-07-29T01:09:43.158Z,1.20
2022-07-29T01:12:24.409Z,1.38
2022-07-29T01:14:51.129Z,1.52
2022-07-29T01:17:25.108Z,2.00
2022-07-29T01:20:00.695Z,1.40
2022-07-29T01:22:50.383Z,1.73
2022-07-29T01:25:48.562Z,1.27
2022-07-29T01:28:45.365Z,1.50
2022-07-29T01:31:20.242Z,1.40
2022-07-29T01:33:58.778Z,1.17
2022-07-29T01:36:41.623Z,1.30
2022-07-29T01:39:10.020Z,1.25
2022-07-29T01:41:38.248Z,1.45
2022-07-29T01:44:19.983Z,1.58
2022-07-29T01:46:57.618Z,1.25
2022-07-29T01:49:29.746Z,1.42
2022-07-29T01:52:02.017Z,1.23
2022-07-29T01:54:38.425Z,1.40
2022-07-29T01:57:05.378Z,1.48
2022-07-29T01:59:34.227Z,1.52
2022-07-29T02:02:01.172Z,1.92
2022-07-29T02:04:29.064Z,1.63
2022-07-29T02:06:59.660Z,1.67
2022-07-29T02:09:26.294Z,1.48
2022-07-29T02:11:54.482Z,1.50
2022-07-29T02:14:21.334Z,1.65
2022-07-29T02:16:50.822Z,1.30
2022-07-29T02:19:18.559Z,1.27
2022-07-29T02:21:45.748Z,2.00
2022-07-29T02:24:12.492Z,1.48
2022-07-29T02:26:39.318Z,1.98
2022-07-29T02:29:06.002Z,1.55
2022-07-29T02:31:34.804Z,1.48
2022-07-29T02:34:03.173Z,2.00
2022-07-29T02:36:29.845Z,1.90
2022-07-29T02:38:58.392Z,1.50
2022-07-29T02:41:34.659Z,1.73
2022-07-29T02:44:09.382Z,1.73
2022-07-29T02:46:37.118Z,2.03
2022-07-29T02:49:36.066Z,1.55
2022-07-29T02:52:06.544Z,1.67
2022-07-29T02:54:40.448Z,1.30
2022-07-29T02:57:11.860Z,1.70
2022-07-29T02:59:41.515Z,1.55
2022-07-29T03:02:12.844Z,1.70
2022-07-29T03:04:40.035Z,1.55
2022-07-29T03:07:09.689Z,2.03
2022-07-29T03:09:36.413Z,1.88
2022-07-29T03:12:03.173Z,2.03
2022-07-29T03:14:29.860Z,2.05
2022-07-29T03:16:56.520Z,2.08
2022-07-29T03:19:23.243Z,2.15
2022-07-29T03:21:52.373Z,2.25
2022-07-29T03:24:30.513Z,1.70
2022-07-29T03:26:57.690Z,1.67
2022-07-29T03:29:24.856Z,1.90
2022-07-29T03:32:00.268Z,1.98
2022-07-29T03:34:28.950Z,1.77
2022-07-29T03:36:55.660Z,1.52
2022-07-29T03:39:24.114Z,1.50
2022-07-29T03:41:52.520Z,1.52
2022-07-29T03:44:21.390Z,1.70
2022-07-29T03:46:48.242Z,1.67
2022-07-29T03:49:15.402Z,1.70
2022-07-29T03:51:42.249Z,1.80
2022-07-29T03:54:10.258Z,1.60
2022-07-29T03:56:39.903Z,1.70
2022-07-29T03:59:06.534Z,1.60
2022-07-29T04:01:34.087Z,1.40
2022-07-29T04:04:02.184Z,1.65
2022-07-29T04:06:28.935Z,1.73
2022-07-29T04:08:55.645Z,1.88
2022-07-29T04:11:22.322Z,1.80
2022-07-29T04:13:48.980Z,1.70
2022-07-29T04:16:15.745Z,1.88
2022-07-29T04:18:42.412Z,1.70
2022-07-29T04:21:11.540Z,1.88
2022-07-29T04:23:53.010Z,1.92
2022-07-29T04:26:20.856Z,1.60
2022-07-29T04:28:47.557Z,1.40
2022-07-29T04:31:17.991Z,1.85
2022-07-29T04:33:46.933Z,1.73
2022-07-29T04:36:28.720Z,1.80
2022-07-29T04:38:58.887Z,1.85
2022-07-29T04:41:32.641Z,1.50
2022-07-29T04:44:01.877Z,1.98
2022-07-29T04:46:28.853Z,1.95
2022-07-29T04:48:55.641Z,2.33
2022-07-29T04:51:22.425Z,2.30
2022-07-29T04:53:49.075Z,1.77
2022-07-29T04:56:15.844Z,2.33
2022-07-29T04:58:42.504Z,1.60
2022-07-29T05:01:09.274Z,2.03
2022-07-29T05:03:35.897Z,2.13
2022-07-29T05:06:02.620Z,1.58
2022-07-29T05:08:29.226Z,2.20
2022-07-29T05:10:55.880Z,2.00
2022-07-29T05:13:22.534Z,2.17
2022-07-29T05:15:49.206Z,1.90
2022-07-29T05:18:15.841Z,2.45
2022-07-29T05:20:42.616Z,2.13
2022-07-29T05:23:09.836Z,2.38
2022-07-29T05:25:43.736Z,1.73
2022-07-29T05:28:12.226Z,2.42
2022-07-29T05:30:41.269Z,2.22
2022-07-29T05:33:08.063Z,2.42
2022-07-29T05:35:38.088Z,2.10
2022-07-29T05:38:04.951Z,2.00
2022-07-29T05:40:31.610Z,1.98
2022-07-29T05:42:58.347Z,1.65
2022-07-29T05:45:25.454Z,2.00
2022-07-29T05:47:52.106Z,1.95
2022-07-29T05:50:18.694Z,1.90
2022-07-29T05:52:45.404Z,1.83
2022-07-29T05:55:12.187Z,1.92
2022-07-29T05:57:38.901Z,2.25
2022-07-29T06:00:08.765Z,1.95
2022-07-29T06:02:41.377Z,2.28
2022-07-29T06:05:10.614Z,1.98
2022-07-29T06:07:50.618Z,2.70
2022-07-29T06:10:20.659Z,2.45
2022-07-29T06:12:50.737Z,2.25
2022-07-29T06:15:17.488Z,1.95
2022-07-29T06:17:59.274Z,2.65
2022-07-29T06:20:31.227Z,2.22
2022-07-29T06:22:58.543Z,2.78
2022-07-29T06:25:29.967Z,1.75
2022-07-29T06:27:56.964Z,2.13
2022-07-29T06:30:23.829Z,1.60
2022-07-29T06:32:50.588Z,1.80
2022-07-29T06:35:39.103Z,2.13
2022-07-29T06:38:04.170Z,1.70
2022-07-29T06:41:02.188Z,2.00
2022-07-29T06:43:51.902Z,1.70
2022-07-29T06:46:20.090Z,2.25
2022-07-29T06:48:47.066Z,1.98
2022-07-29T06:51:13.903Z,1.73
2022-07-29T06:53:40.708Z,1.83
2022-07-29T06:56:27.483Z,1.80
2022-07-29T06:58:54.198Z,1.95
2022-07-29T07:01:21.072Z,1.75
2022-07-29T07:03:48.530Z,2.15
2022-07-29T07:06:15.383Z,2.33
2022-07-29T07:08:44.648Z,1.73
2022-07-29T07:11:11.307Z,2.20
2022-07-29T07:13:38.071Z,1.80
2022-07-29T07:16:05.285Z,1.60
2022-07-29T07:18:32.060Z,1.55
2022-07-29T07:21:01.013Z,1.50
2022-07-29T07:23:27.656Z,2.75
2022-07-29T07:25:54.354Z,1.92
2022-07-29T07:28:24.505Z,1.70
2022-07-29T07:30:54.501Z,1.70
2022-07-29T07:33:21.243Z,1.73
2022-07-29T07:35:47.935Z,1.40
2022-07-29T07:38:16.910Z,1.85
2022-07-29T07:40:43.590Z,2.03
2022-07-29T07:43:12.602Z,1.85
2022-07-29T07:45:41.099Z,1.58
2022-07-29T07:48:07.875Z,1.60
2022-07-29T07:50:34.601Z,1.70
2022-07-29T07:53:03.105Z,1.70
2022-07-29T07:55:53.245Z,1.73
2022-07-29T07:58:16.568Z,1.65
2022-07-29T08:00:43.290Z,2.38
2022-07-29T08:03:16.956Z,1.92
2022-07-29T08:05:44.256Z,1.50
2022-07-29T08:08:13.140Z,1.70
2022-07-29T08:10:56.450Z,2.10
2022-07-29T08:13:24.726Z,1.85
2022-07-29T08:16:12.269Z,2.00
2022-07-29T08:18:41.521Z,1.75
2022-07-29T08:21:08.220Z,1.80
2022-07-29T08:23:50.572Z,1.55
2022-07-29T08:26:23.498Z,1.70
2022-07-29T08:28:51.256Z,1.63
2022-07-29T08:31:18.128Z,1.65
2022-07-29T08:33:44.896Z,1.90
2022-07-29T08:36:11.556Z,1.98
2022-07-29T08:38:38.277Z,1.58
2022-07-29T08:41:04.908Z,2.33
2022-07-29T08:43:31.534Z,1.90
2022-07-29T08:46:00.502Z,1.73
2022-07-29T08:48:30.191Z,1.80
2022-07-29T08:50:57.174Z,1.70
2022-07-29T08:53:27.282Z,1.98
2022-07-29T08:55:53.976Z,2.03
2022-07-29T08:58:23.207Z,2.65
2022-07-29T09:00:53.115Z,1.40
2022-07-29T09:03:24.434Z,2.25
2022-07-29T09:05:51.074Z,2.30
2022-07-29T09:08:17.999Z,2.10
2022-07-29T09:10:45.313Z,2.20
2022-07-29T09:13:12.014Z,2.00
2022-07-29T09:15:38.711Z,1.42
2022-07-29T09:18:05.372Z,1.92
2022-07-29T09:20:50.526Z,2.00
2022-07-29T09:23:23.244Z,2.10
2022-07-29T09:25:51.501Z,1.77
2022-07-29T09:28:20.921Z,2.03
2022-07-29T09:30:54.242Z,1.92
2022-07-29T09:33:22.105Z,1.90
2022-07-29T09:36:06.010Z,1.80
2022-07-29T09:38:33.648Z,2.20
2022-07-29T09:41:05.975Z,2.13
2022-07-29T09:43:33.533Z,1.95
2022-07-29T09:46:13.069Z,1.90
2022-07-29T09:48:40.039Z,2.13
2022-07-29T09:51:07.436Z,1.67
2022-07-29T09:53:35.742Z,1.90
2022-07-29T09:56:06.036Z,1.88
2022-07-29T09:58:34.618Z,1.85
2022-07-29T10:01:01.320Z,2.22
2022-07-29T10:03:28.123Z,1.85
2022-07-29T10:06:07.813Z,2.22
2022-07-29T10:08:36.785Z,1.90
2022-07-29T10:11:14.557Z,2.08
2022-07-29T10:13:41.921Z,2.10
2022-07-29T10:16:09.222Z,1.77
2022-07-29T10:18:44.679Z,2.10
2022-07-29T10:21:11.575Z,2.03
2022-07-29T10:24:00.936Z,1.70
2022-07-29T10:26:29.724Z,1.83
2022-07-29T10:28:56.601Z,2.13
2022-07-29T10:31:31.298Z,1.90
2022-07-29T10:34:06.107Z,2.30
2022-07-29T10:36:52.575Z,2.25
2022-07-29T10:42:34.017Z,2.35
2022-07-29T10:45:01.789Z,2.90
2022-07-29T10:47:28.612Z,2.90
2022-07-29T10:50:03.707Z,2.72
2022-07-29T10:52:55.613Z,2.60
2022-07-29T10:55:37.568Z,2.80
2022-07-29T10:58:19.013Z,2.60
2022-07-29T11:00:50.446Z,2.80
2022-07-29T11:03:50.711Z,3.00
2022-07-29T11:06:26.454Z,2.63
2022-07-29T11:09:16.088Z,2.90
2022-07-29T11:11:44.006Z,3.50
2022-07-29T11:14:26.607Z,3.13
2022-07-29T11:17:06.220Z,2.65
2022-07-29T11:19:37.183Z,2.97
2022-07-29T11:22:09.300Z,2.55
2022-07-29T11:24:36.900Z,3.00
2022-07-29T11:27:13.970Z,2.92
2022-07-29T11:29:55.770Z,2.80
2022-07-29T11:32:24.071Z,2.53
2022-07-29T11:35:17.508Z,2.83
2022-07-29T11:37:55.347Z,2.42
2022-07-29T11:40:24.518Z,2.55
2022-07-29T11:42:52.318Z,3.03
2022-07-29T11:45:43.318Z,3.47
2022-07-29T11:48:28.540Z,2.60
2022-07-29T11:50:55.313Z,3.10
2022-07-29T11:53:24.826Z,3.30
2022-07-29T11:55:54.232Z,3.22
2022-07-29T11:58:24.914Z,2.92
2022-07-29T12:00:52.131Z,2.72
2022-07-29T12:03:33.254Z,2.60
2022-07-29T12:06:17.397Z,2.88
2022-07-29T12:08:45.390Z,2.83
2022-07-29T12:11:21.323Z,2.72
2022-07-29T12:13:49.482Z,2.88
2022-07-29T12:16:27.961Z,2.90
2022-07-29T12:19:03.711Z,12.68
2022-07-29T12:21:54.046Z,2.13
2022-07-29T12:24:26.973Z,2.50
2022-07-29T12:26:58.061Z,12.55
2022-07-29T12:29:35.607Z,12.38
2022-07-29T12:32:03.187Z,3.40
2022-07-29T12:34:30.410Z,7.85
2022-07-29T12:36:59.609Z,3.60
2022-07-29T12:39:28.952Z,3.63
2022-07-29T12:42:04.464Z,3.65
2022-07-29T12:44:52.382Z,2.63
2022-07-29T12:47:19.652Z,2.88
2022-07-29T12:49:47.663Z,2.70
2022-07-29T12:52:30.807Z,3.50
2022-07-29T12:54:57.566Z,2.15
2022-07-29T12:57:26.756Z,2.88
2022-07-29T13:00:11.655Z,2.50
2022-07-29T13:02:39.081Z,2.55
2022-07-29T13:05:09.441Z,1.98
2022-07-29T13:07:54.902Z,2.60
2022-07-29T13:10:24.477Z,2.38
2022-07-29T13:13:04.587Z,2.35
2022-07-29T13:15:31.287Z,2.72
2022-07-29T13:18:00.563Z,2.53
2022-07-29T13:20:30.537Z,2.15
2022-07-29T13:23:01.558Z,2.40
2022-07-29T13:25:30.218Z,2.15
2022-07-29T13:27:57.069Z,1.95
2022-07-29T13:30:24.046Z,2.30
2022-07-29T13:32:53.509Z,2.08
2022-07-29T13:35:20.318Z,2.35
2022-07-29T13:37:49.244Z,2.10
2022-07-29T13:40:18.788Z,2.70
2022-07-29T13:42:45.477Z,2.38
2022-07-29T13:45:13.692Z,2.97
2022-07-29T13:47:42.584Z,2.38
2022-07-29T13:50:12.711Z,2.30
2022-07-29T13:52:42.345Z,2.10
2022-07-29T13:55:09.355Z,2.17
2022-07-29T13:57:36.597Z,2.80
2022-07-29T14:00:03.699Z,1.90
2022-07-29T14:02:35.190Z,2.10
2022-07-29T14:05:06.238Z,2.35
2022-07-29T14:07:34.942Z,1.90
2022-07-29T14:10:03.853Z,3.00
2022-07-29T14:12:30.585Z,2.42
2022-07-29T14:14:57.262Z,2.13
2022-07-29T14:17:26.257Z,2.15
2022-07-29T14:19:52.886Z,2.45
2022-07-29T14:22:20.042Z,2.13
2022-07-29T14:24:49.848Z,2.03
2022-07-29T14:27:16.540Z,2.10
2022-07-29T14:29:43.563Z,2.47
2022-07-29T14:32:15.993Z,2.53
2022-07-29T14:34:42.742Z,2.20
2022-07-29T14:37:16.072Z,2.17
2022-07-29T14:39:43.475Z,2.08
2022-07-29T14:42:11.558Z,1.98
2022-07-29T14:44:39.647Z,1.95
2022-07-29T14:47:07.622Z,2.03
2022-07-29T14:49:35.778Z,2.00
2022-07-29T14:52:02.493Z,2.47
2022-07-29T14:54:29.238Z,2.10
2022-07-29T14:56:58.778Z,1.92
2022-07-29T14:59:26.314Z,1.98
2022-07-29T15:01:53.194Z,2.17
2022-07-29T15:04:19.996Z,2.00
2022-07-29T15:06:46.751Z,2.03
2022-07-29T15:09:13.458Z,2.28
2022-07-29T15:11:40.093Z,2.38
2022-07-29T15:14:07.063Z,2.10
2022-07-29T15:16:34.192Z,2.70
2022-07-29T15:19:02.016Z,2.17
2022-07-29T15:21:28.696Z,2.53
2022-07-29T15:23:55.415Z,2.28
2022-07-29T15:26:22.153Z,2.28
2022-07-29T15:28:49.075Z,2.50
2022-07-29T15:31:15.900Z,2.35
2022-07-29T15:33:42.687Z,2.25
2022-07-29T15:36:09.573Z,3.38
2022-07-29T15:38:41.649Z,2.28
2022-07-29T15:41:08.811Z,2.53
2022-07-29T15:43:38.342Z,2.40
2022-07-29T15:46:23.360Z,2.53
2022-07-29T15:48:52.760Z,3.58
2022-07-29T15:51:19.428Z,3.20
2022-07-29T15:53:53.347Z,4.05
2022-07-29T15:56:23.323Z,3.35
2022-07-29T15:58:50.138Z,2.50
2022-07-29T16:01:17.237Z,2.92
2022-07-29T16:03:46.207Z,2.45
2022-07-29T16:06:13.821Z,2.40
2022-07-29T16:08:42.734Z,2.20
2022-07-29T16:11:10.829Z,2.70
2022-07-29T16:13:37.538Z,2.05
2022-07-29T16:16:05.000Z,2.30
2022-07-29T16:18:31.656Z,2.40
2022-07-29T16:20:58.567Z,2.50
2022-07-29T16:23:25.261Z,2.58
2022-07-29T16:26:01.656Z,2.33
2022-07-29T16:28:29.202Z,2.80
2022-07-29T16:30:55.939Z,3.10
2022-07-29T16:33:23.498Z,3.10
2022-07-29T16:35:50.755Z,3.10
2022-07-29T16:38:17.439Z,3.08
2022-07-29T16:40:44.180Z,3.05
2022-07-29T16:43:11.021Z,3.42
2022-07-29T16:45:45.050Z,2.70
2022-07-29T16:48:13.971Z,3.03
2022-07-29T16:50:43.761Z,2.90
2022-07-29T16:53:14.369Z,3.17
2022-07-29T16:55:43.365Z,3.05
2022-07-29T16:58:10.918Z,3.30
2022-07-29T17:00:37.906Z,2.88
2022-07-29T17:03:05.511Z,3.90
2022-07-29T17:05:52.431Z,2.80
2022-07-29T17:08:20.224Z,3.30
2022-07-29T17:10:47.365Z,3.45
2022-07-29T17:13:14.369Z,3.28
2022-07-29T17:15:42.557Z,3.05
2022-07-29T17:18:12.541Z,2.72
2022-07-29T17:20:42.225Z,3.45
2022-07-29T17:23:09.017Z,3.45
2022-07-29T17:25:36.941Z,2.90
2022-07-29T17:28:03.681Z,3.60
2022-07-29T17:30:30.368Z,2.95
2022-07-29T17:32:57.049Z,3.42
2022-07-29T17:35:42.138Z,2.75
2022-07-29T17:38:08.771Z,3.33
2022-07-29T17:40:35.420Z,3.85
2022-07-29T17:43:02.208Z,4.03
2022-07-29T17:45:49.589Z,3.97
2022-07-29T17:48:17.465Z,4.10
2022-07-29T17:50:44.074Z,3.55
2022-07-29T17:53:15.768Z,4.07
2022-07-29T17:55:45.459Z,3.70
2022-07-29T17:58:14.489Z,3.58
2022-07-29T18:00:41.856Z,4.03
2022-07-29T18:03:08.950Z,3.90
2022-07-29T18:05:35.685Z,4.18
2022-07-29T18:08:02.334Z,3.67
2022-07-29T18:10:29.003Z,3.83
2022-07-29T18:12:55.645Z,3.90
2022-07-29T18:15:22.944Z,3.45
2022-07-29T18:17:56.448Z,3.53
2022-07-29T18:20:24.202Z,2.85
2022-07-29T18:22:51.147Z,2.75
2022-07-29T18:25:17.839Z,3.70
2022-07-29T18:27:45.161Z,3.03
2022-07-29T18:30:11.971Z,2.95
2022-07-29T18:32:38.602Z,3.00
2022-07-29T18:35:06.390Z,3.35
2022-07-29T18:38:00.803Z,2.97
2022-07-29T18:40:23.819Z,3.53
2022-07-29T18:42:50.513Z,3.08
2022-07-29T18:45:19.934Z,3.03
2022-07-29T18:47:49.075Z,2.70
2022-07-29T18:50:19.321Z,3.28
2022-07-29T18:52:48.891Z,2.65
2022-07-29T18:55:15.622Z,3.13
2022-07-29T18:57:56.192Z,2.80
2022-07-29T19:00:23.929Z,3.15
2022-07-29T19:02:50.830Z,2.70
2022-07-29T19:05:17.647Z,3.05
2022-07-29T19:07:44.337Z,3.00
2022-07-29T19:10:11.300Z,3.03
2022-07-29T19:12:37.985Z,2.90
2022-07-29T19:15:04.816Z,2.70
2022-07-29T19:17:31.472Z,2.80
2022-07-29T19:20:00.609Z,2.95
2022-07-29T19:22:29.545Z,3.33
2022-07-29T19:24:56.185Z,3.38
2022-07-29T19:27:22.933Z,3.58
2022-07-29T19:29:49.593Z,3.90
2022-07-29T19:32:25.098Z,3.53
2022-07-29T19:35:10.673Z,3.10
2022-07-29T19:37:37.526Z,3.38
2022-07-29T19:40:08.062Z,3.83
2022-07-29T19:42:34.754Z,4.22
2022-07-29T19:45:03.899Z,3.88
2022-07-29T19:47:30.555Z,3.40
2022-07-29T19:49:57.269Z,4.20
2022-07-29T19:52:24.028Z,4.50
2022-07-29T19:54:50.789Z,3.42
2022-07-29T19:57:17.459Z,3.50
2022-07-29T19:59:44.313Z,4.03
2022-07-29T20:02:12.269Z,3.70
2022-07-29T20:04:41.664Z,3.45
2022-07-29T20:07:08.546Z,3.70
2022-07-29T20:09:36.287Z,3.92
2022-07-29T20:12:04.676Z,3.78
2022-07-29T20:14:33.709Z,3.72
2022-07-29T20:17:00.762Z,4.28
2022-07-29T20:19:27.607Z,3.90
2022-07-29T20:21:54.737Z,3.95
2022-07-29T20:24:21.505Z,3.95
2022-07-29T20:26:48.416Z,4.38
2022-07-29T20:29:19.340Z,3.55
2022-07-29T20:31:46.365Z,3.88
2022-07-29T20:34:23.076Z,3.50
2022-07-29T20:36:49.815Z,3.22
2022-07-29T20:39:16.482Z,3.67
2022-07-29T20:41:43.178Z,3.60
2022-07-29T20:44:09.941Z,4.28
2022-07-29T20:46:36.642Z,3.95
2022-07-29T20:49:05.654Z,3.88
2022-07-29T20:51:32.296Z,3.80
2022-07-29T20:54:10.101Z,4.00
2022-07-29T20:56:39.326Z,3.95
2022-07-29T20:59:05.999Z,3.67
2022-07-29T21:01:32.734Z,4.10
2022-07-29T21:04:00.950Z,3.17
2022-07-29T21:06:27.660Z,4.15
2022-07-29T21:08:57.779Z,4.28
2022-07-29T21:11:44.183Z,3.83
2022-07-29T21:14:26.621Z,4.25
2022-07-29T21:16:53.374Z,3.38
2022-07-29T21:19:20.009Z,3.88
2022-07-29T21:21:51.114Z,3.50
2022-07-29T21:24:18.977Z,3.70
2022-07-29T21:26:54.482Z,3.45
2022-07-29T21:29:26.759Z,3.40
2022-07-29T21:31:53.370Z,3.50
2022-07-29T21:34:20.074Z,3.53
2022-07-29T21:36:58.540Z,3.55
2022-07-29T21:39:25.208Z,3.40
2022-07-29T21:41:51.898Z,3.30
2022-07-29T21:44:20.926Z,3.00
2022-07-29T21:46:50.131Z,3.03
2022-07-29T21:49:19.062Z,3.33
2022-07-29T21:51:45.893Z,3.83
2022-07-29T21:54:15.588Z,3.45
2022-07-29T21:56:42.300Z,3.45
2022-07-29T21:59:19.979Z,3.63
2022-07-29T22:01:46.776Z,3.70
2022-07-29T22:04:13.581Z,3.25
2022-07-29T22:06:40.511Z,3.60
2022-07-29T22:09:07.232Z,3.72
2022-07-29T22:11:35.585Z,3.80
2022-07-29T22:14:03.367Z,3.35
2022-07-29T22:16:30.386Z,3.95
2022-07-29T22:18:57.187Z,4.25
2022-07-29T22:21:23.842Z,3.75
2022-07-29T22:23:52.798Z,3.78
2022-07-29T22:26:24.152Z,3.88
2022-07-29T22:28:52.672Z,3.45
2022-07-29T22:31:19.341Z,3.80
2022-07-29T22:33:46.137Z,3.80
2022-07-29T22:36:12.938Z,3.78
2022-07-29T22:38:39.563Z,3.95
2022-07-29T22:41:06.358Z,3.53
2022-07-29T22:43:33.107Z,3.92
2022-07-29T22:46:02.417Z,3.90
2022-07-29T22:48:29.378Z,3.67
2022-07-29T22:51:00.881Z,4.13
2022-07-29T22:53:27.782Z,3.70
2022-07-29T22:55:54.509Z,3.95
2022-07-29T22:58:21.313Z,3.85
2022-07-29T23:00:47.918Z,3.88
2022-07-29T23:03:14.625Z,4.43
2022-07-29T23:05:41.358Z,4.20
2022-07-29T23:08:08.061Z,4.07
2022-07-29T23:10:34.716Z,3.65
2022-07-29T23:13:01.353Z,4.20
2022-07-29T23:15:28.074Z,5.00
2022-07-29T23:17:56.936Z,5.45
2022-07-29T23:20:23.657Z,4.93
2022-07-29T23:22:50.312Z,4.72
2022-07-29T23:25:19.425Z,5.15
2022-07-29T23:27:46.127Z,5.25
2022-07-29T23:30:12.966Z,4.00
2022-07-29T23:32:39.614Z,4.80
2022-07-29T23:35:07.210Z,4.25
2022-07-29T23:37:34.094Z,4.32
2022-07-29T23:40:00.787Z,3.97
2022-07-29T23:42:27.441Z,4.63
2022-07-29T23:44:54.154Z,4.32
2022-07-29T23:47:20.772Z,4.80
2022-07-29T23:49:50.106Z,4.22
2022-07-29T23:52:18.143Z,4.53
2022-07-29T23:54:44.828Z,4.85
2022-07-29T23:57:11.506Z,4.38
2022-07-29T23:59:38.171Z,5.05
